sensor_id;sensor_type;location;lat;lon;timestamp;temperature;humidity
3086;DHT22;52812;48.960;9.108;2022-10-16T00:00:39;14.70;99.90
3086;DHT22;52812;48.960;9.108;2022-10-16T00:03:05;14.70;99.90
3086;DHT22;52812;48.960;9.108;2022-10-16T00:05:31;14.70;99.90
3086;DHT22;52812;48.960;9.108;2022-10-16T00:07:57;14.70;99.90
3086;DHT22;52812;48.960;9.108;2022-10-16T00:10:23;14.60;99.90
3086;DHT22;52812;48.960;9.108;2022-10-16T00:12:49;14.60;99.90
3086;DHT22;52812;48.960;9.108;2022-10-16T00:15:14;14.60;99.90
3086;DHT22;52812;48.960;9.108;2022-10-16T00:17:40;14.50;99.90
3086;DHT22;52812;48.960;9.108;2022-10-16T00:20:06;14.50;99.90
3086;DHT22;52812;48.960;9.108;2022-10-16T00:22:32;14.50;99.90
3086;DHT22;52812;48.960;9.108;2022-10-16T00:24:58;14.40;99.90
3086;DHT22;52812;48.960;9.108;2022-10-16T00:27:23;14.40;99.90
3086;DHT22;52812;48.960;9.108;2022-10-16T00:29:50;14.50;99.90
3086;DHT22;52812;48.960;9.108;2022-10-16T00:32:17;14.50;99.90
3086;DHT22;52812;48.960;9.108;2022-10-16T00:34:43;14.40;99.90
3086;DHT22;52812;48.960;9.108;2022-10-16T00:37:08;14.40;99.90
3086;DHT22;52812;48.960;9.108;2022-10-16T00:39:34;14.40;99.90
3086;DHT22;52812;48.960;9.108;2022-10-16T00:41:59;14.40;99.90
3086;DHT22;52812;48.960;9.108;2022-10-16T00:45:01;14.40;99.90
3086;DHT22;52812;48.960;9.108;2022-10-16T00:47:33;14.50;99.90
3086;DHT22;52812;48.960;9.108;2022-10-16T00:50:45;14.40;99.90
3086;DHT22;52812;48.960;9.108;2022-10-16T00:52:51;14.40;99.90
3086;DHT22;52812;48.960;9.108;2022-10-16T00:55:18;14.50;99.90
3086;DHT22;52812;48.960;9.108;2022-10-16T00:57:45;14.50;99.90
3086;DHT22;52812;48.960;9.108;2022-10-16T01:00:15;14.50;99.90
3086;DHT22;52812;48.960;9.108;2022-10-16T01:02:41;14.50;99.90
3086;DHT22;52812;48.960;9.108;2022-10-16T01:05:08;14.50;99.90
3086;DHT22;52812;48.960;9.108;2022-10-16T01:10:33;14.50;99.90
3086;DHT22;52812;48.960;9.108;2022-10-16T01:13:10;14.60;99.90
3086;DHT22;52812;48.960;9.108;2022-10-16T01:18:11;14.60;99.90
3086;DHT22;52812;48.960;9.108;2022-10-16T01:20:51;14.70;99.90
3086;DHT22;52812;48.960;9.108;2022-10-16T01:23:51;14.70;99.90
3086;DHT22;52812;48.960;9.108;2022-10-16T01:27:21;14.70;99.90
3086;DHT22;52812;48.960;9.108;2022-10-16T01:32:33;14.70;99.90
3086;DHT22;52812;48.960;9.108;2022-10-16T01:35:07;14.70;99.90
3086;DHT22;52812;48.960;9.108;2022-10-16T01:37:40;14.60;99.90
3086;DHT22;52812;48.960;9.108;2022-10-16T01:40:11;14.60;99.90
3086;DHT22;52812;48.960;9.108;2022-10-16T01:42:41;14.60;99.90
3086;DHT22;52812;48.960;9.108;2022-10-16T01:45:10;14.70;99.90
3086;DHT22;52812;48.960;9.108;2022-10-16T01:47:37;14.70;99.90
3086;DHT22;52812;48.960;9.108;2022-10-16T01:50:04;14.60;99.90
3086;DHT22;52812;48.960;9.108;2022-10-16T01:52:33;14.70;99.90
3086;DHT22;52812;48.960;9.108;2022-10-16T01:55:02;14.70;99.90
3086;DHT22;52812;48.960;9.108;2022-10-16T01:57:29;14.70;99.90
3086;DHT22;52812;48.960;9.108;2022-10-16T02:00:00;14.80;99.90
3086;DHT22;52812;48.960;9.108;2022-10-16T02:02:28;14.80;99.90
3086;DHT22;52812;48.960;9.108;2022-10-16T02:04:59;14.70;99.90
3086;DHT22;52812;48.960;9.108;2022-10-16T02:07:26;14.80;99.90
3086;DHT22;52812;48.960;9.108;2022-10-16T02:09:52;14.80;99.90
3086;DHT22;52812;48.960;9.108;2022-10-16T02:12:31;14.90;99.90
3086;DHT22;52812;48.960;9.108;2022-10-16T02:14:57;14.90;99.90
3086;DHT22;52812;48.960;9.108;2022-10-16T02:17:23;14.90;99.90
3086;DHT22;52812;48.960;9.108;2022-10-16T02:19:51;14.90;99.90
3086;DHT22;52812;48.960;9.108;2022-10-16T02:22:31;14.90;99.90
3086;DHT22;52812;48.960;9.108;2022-10-16T02:25:16;14.90;99.90
3086;DHT22;52812;48.960;9.108;2022-10-16T02:28:00;14.90;99.90
3086;DHT22;52812;48.960;9.108;2022-10-16T02:30:29;15.00;99.90
3086;DHT22;52812;48.960;9.108;2022-10-16T02:32:58;15.00;99.90
3086;DHT22;52812;48.960;9.108;2022-10-16T02:35:25;14.90;99.90
3086;DHT22;52812;48.960;9.108;2022-10-16T02:37:52;14.90;99.90
3086;DHT22;52812;48.960;9.108;2022-10-16T02:40:19;14.80;99.90
3086;DHT22;52812;48.960;9.108;2022-10-16T02:42:52;14.80;99.90
3086;DHT22;52812;48.960;9.108;2022-10-16T02:45:19;14.80;99.90
3086;DHT22;52812;48.960;9.108;2022-10-16T02:47:45;14.80;99.90
3086;DHT22;52812;48.960;9.108;2022-10-16T02:50:10;14.80;99.90
3086;DHT22;52812;48.960;9.108;2022-10-16T02:52:36;14.70;99.90
3086;DHT22;52812;48.960;9.108;2022-10-16T02:55:01;14.70;99.90
3086;DHT22;52812;48.960;9.108;2022-10-16T02:57:27;14.70;99.90
3086;DHT22;52812;48.960;9.108;2022-10-16T02:59:52;14.70;99.90
3086;DHT22;52812;48.960;9.108;2022-10-16T03:02:18;14.70;99.90
3086;DHT22;52812;48.960;9.108;2022-10-16T03:04:44;14.70;99.90
3086;DHT22;52812;48.960;9.108;2022-10-16T03:07:09;14.70;99.90
3086;DHT22;52812;48.960;9.108;2022-10-16T03:09:35;14.70;99.90
3086;DHT22;52812;48.960;9.108;2022-10-16T03:12:01;14.70;99.90
3086;DHT22;52812;48.960;9.108;2022-10-16T03:14:26;14.70;99.90
3086;DHT22;52812;48.960;9.108;2022-10-16T03:16:52;14.70;99.90
3086;DHT22;52812;48.960;9.108;2022-10-16T03:19:18;14.70;99.90
3086;DHT22;52812;48.960;9.108;2022-10-16T03:21:44;14.70;99.90
3086;DHT22;52812;48.960;9.108;2022-10-16T03:24:09;14.60;99.90
3086;DHT22;52812;48.960;9.108;2022-10-16T03:26:35;14.60;99.90
3086;DHT22;52812;48.960;9.108;2022-10-16T03:29:01;14.70;99.90
3086;DHT22;52812;48.960;9.108;2022-10-16T03:31:29;14.70;99.90
3086;DHT22;52812;48.960;9.108;2022-10-16T03:33:54;14.60;99.90
3086;DHT22;52812;48.960;9.108;2022-10-16T03:36:20;14.60;99.90
3086;DHT22;52812;48.960;9.108;2022-10-16T03:38:45;14.50;99.90
3086;DHT22;52812;48.960;9.108;2022-10-16T03:41:11;14.50;99.90
3086;DHT22;52812;48.960;9.108;2022-10-16T03:43:36;14.50;99.90
3086;DHT22;52812;48.960;9.108;2022-10-16T03:46:02;14.50;99.90
3086;DHT22;52812;48.960;9.108;2022-10-16T03:48:28;14.60;99.90
3086;DHT22;52812;48.960;9.108;2022-10-16T03:50:54;14.60;99.90
3086;DHT22;52812;48.960;9.108;2022-10-16T03:53:20;14.60;99.90
3086;DHT22;52812;48.960;9.108;2022-10-16T03:55:45;14.60;99.90
3086;DHT22;52812;48.960;9.108;2022-10-16T03:58:11;14.50;99.90
3086;DHT22;52812;48.960;9.108;2022-10-16T04:00:44;14.40;99.90
3086;DHT22;52812;48.960;9.108;2022-10-16T04:03:11;14.40;99.90
3086;DHT22;52812;48.960;9.108;2022-10-16T04:05:37;14.50;99.90
3086;DHT22;52812;48.960;9.108;2022-10-16T04:08:03;14.50;99.90
3086;DHT22;52812;48.960;9.108;2022-10-16T04:10:29;14.40;99.90
3086;DHT22;52812;48.960;9.108;2022-10-16T04:12:55;14.50;99.90
3086;DHT22;52812;48.960;9.108;2022-10-16T04:15:22;14.40;99.90
3086;DHT22;52812;48.960;9.108;2022-10-16T04:17:47;14.40;99.90
3086;DHT22;52812;48.960;9.108;2022-10-16T04:20:13;14.40;99.90
3086;DHT22;52812;48.960;9.108;2022-10-16T04:22:39;14.40;99.90
3086;DHT22;52812;48.960;9.108;2022-10-16T04:25:05;14.40;99.90
3086;DHT22;52812;48.960;9.108;2022-10-16T04:27:30;14.40;99.90
3086;DHT22;52812;48.960;9.108;2022-10-16T04:29:57;14.40;99.90
3086;DHT22;52812;48.960;9.108;2022-10-16T04:32:23;14.40;99.90
3086;DHT22;52812;48.960;9.108;2022-10-16T04:34:48;14.50;99.90
3086;DHT22;52812;48.960;9.108;2022-10-16T04:37:14;14.50;99.90
3086;DHT22;52812;48.960;9.108;2022-10-16T04:39:39;14.50;99.90
3086;DHT22;52812;48.960;9.108;2022-10-16T04:42:05;14.50;99.90
3086;DHT22;52812;48.960;9.108;2022-10-16T04:44:30;14.50;99.90
3086;DHT22;52812;48.960;9.108;2022-10-16T04:46:56;14.50;99.90
3086;DHT22;52812;48.960;9.108;2022-10-16T04:49:22;14.50;99.90
3086;DHT22;52812;48.960;9.108;2022-10-16T04:51:47;14.50;99.90
3086;DHT22;52812;48.960;9.108;2022-10-16T04:54:13;14.50;99.90
3086;DHT22;52812;48.960;9.108;2022-10-16T04:56:38;14.40;99.90
3086;DHT22;52812;48.960;9.108;2022-10-16T04:59:16;14.40;99.90
3086;DHT22;52812;48.960;9.108;2022-10-16T05:01:42;14.40;99.90
3086;DHT22;52812;48.960;9.108;2022-10-16T05:04:08;14.40;99.90
3086;DHT22;52812;48.960;9.108;2022-10-16T05:06:34;14.30;99.90
3086;DHT22;52812;48.960;9.108;2022-10-16T05:08:59;14.20;99.90
3086;DHT22;52812;48.960;9.108;2022-10-16T05:11:25;14.20;99.90
3086;DHT22;52812;48.960;9.108;2022-10-16T05:13:50;14.30;99.90
3086;DHT22;52812;48.960;9.108;2022-10-16T05:16:16;14.30;99.90
3086;DHT22;52812;48.960;9.108;2022-10-16T05:18:41;14.40;99.90
3086;DHT22;52812;48.960;9.108;2022-10-16T05:21:07;14.50;99.90
3086;DHT22;52812;48.960;9.108;2022-10-16T05:23:32;14.60;99.90
3086;DHT22;52812;48.960;9.108;2022-10-16T05:25:59;14.60;99.90
3086;DHT22;52812;48.960;9.108;2022-10-16T05:28:29;14.60;99.90
3086;DHT22;52812;48.960;9.108;2022-10-16T05:30:57;14.60;99.90
3086;DHT22;52812;48.960;9.108;2022-10-16T05:33:24;14.50;99.90
3086;DHT22;52812;48.960;9.108;2022-10-16T05:35:50;14.50;99.90
3086;DHT22;52812;48.960;9.108;2022-10-16T05:38:19;14.40;99.90
3086;DHT22;52812;48.960;9.108;2022-10-16T05:40:51;14.40;99.90
3086;DHT22;52812;48.960;9.108;2022-10-16T05:43:17;14.40;99.90
3086;DHT22;52812;48.960;9.108;2022-10-16T05:45:43;14.40;99.90
3086;DHT22;52812;48.960;9.108;2022-10-16T05:48:08;14.40;99.90
3086;DHT22;52812;48.960;9.108;2022-10-16T05:50:33;14.30;99.90
3086;DHT22;52812;48.960;9.108;2022-10-16T05:52:59;14.30;99.90
3086;DHT22;52812;48.960;9.108;2022-10-16T05:55:25;14.30;99.90
3086;DHT22;52812;48.960;9.108;2022-10-16T05:57:50;14.30;99.90
3086;DHT22;52812;48.960;9.108;2022-10-16T06:00:18;14.30;99.90
3086;DHT22;52812;48.960;9.108;2022-10-16T06:02:44;14.30;99.90
3086;DHT22;52812;48.960;9.108;2022-10-16T06:05:09;14.40;99.90
3086;DHT22;52812;48.960;9.108;2022-10-16T06:07:35;14.40;99.90
3086;DHT22;52812;48.960;9.108;2022-10-16T06:10:01;14.40;99.90
3086;DHT22;52812;48.960;9.108;2022-10-16T06:12:28;14.40;99.90
3086;DHT22;52812;48.960;9.108;2022-10-16T06:14:53;14.40;99.90
3086;DHT22;52812;48.960;9.108;2022-10-16T06:17:19;14.40;99.90
3086;DHT22;52812;48.960;9.108;2022-10-16T06:19:44;14.40;99.90
3086;DHT22;52812;48.960;9.108;2022-10-16T06:22:10;14.50;99.90
3086;DHT22;52812;48.960;9.108;2022-10-16T06:24:36;14.50;99.90
3086;DHT22;52812;48.960;9.108;2022-10-16T06:27:03;14.60;99.90
3086;DHT22;52812;48.960;9.108;2022-10-16T06:29:29;14.50;99.90
3086;DHT22;52812;48.960;9.108;2022-10-16T06:31:55;14.60;99.90
3086;DHT22;52812;48.960;9.108;2022-10-16T06:34:20;14.60;99.90
3086;DHT22;52812;48.960;9.108;2022-10-16T06:36:46;14.60;99.90
3086;DHT22;52812;48.960;9.108;2022-10-16T06:39:11;14.60;99.90
3086;DHT22;52812;48.960;9.108;2022-10-16T06:41:37;14.60;99.90
3086;DHT22;52812;48.960;9.108;2022-10-16T06:44:05;14.60;99.90
3086;DHT22;52812;48.960;9.108;2022-10-16T06:46:32;14.60;99.90
3086;DHT22;52812;48.960;9.108;2022-10-16T06:48:57;14.60;99.90
3086;DHT22;52812;48.960;9.108;2022-10-16T06:51:24;14.70;99.90
3086;DHT22;52812;48.960;9.108;2022-10-16T06:53:52;14.80;99.90
3086;DHT22;52812;48.960;9.108;2022-10-16T06:56:23;14.90;99.90
3086;DHT22;52812;48.960;9.108;2022-10-16T06:58:50;15.00;99.90
3086;DHT22;52812;48.960;9.108;2022-10-16T07:01:17;15.00;99.90
3086;DHT22;52812;48.960;9.108;2022-10-16T07:03:45;15.10;99.90
3086;DHT22;52812;48.960;9.108;2022-10-16T07:06:14;15.10;99.90
3086;DHT22;52812;48.960;9.108;2022-10-16T07:08:41;15.20;99.90
3086;DHT22;52812;48.960;9.108;2022-10-16T07:11:10;15.20;99.90
3086;DHT22;52812;48.960;9.108;2022-10-16T07:13:37;15.20;99.90
3086;DHT22;52812;48.960;9.108;2022-10-16T07:16:08;15.20;99.90
3086;DHT22;52812;48.960;9.108;2022-10-16T07:18:35;15.20;99.90
3086;DHT22;52812;48.960;9.108;2022-10-16T07:21:15;15.20;99.90
3086;DHT22;52812;48.960;9.108;2022-10-16T07:23:41;15.20;99.90
3086;DHT22;52812;48.960;9.108;2022-10-16T07:26:07;15.20;99.90
3086;DHT22;52812;48.960;9.108;2022-10-16T07:28:34;15.20;99.90
3086;DHT22;52812;48.960;9.108;2022-10-16T07:31:07;15.20;99.90
3086;DHT22;52812;48.960;9.108;2022-10-16T07:33:34;15.30;99.90
3086;DHT22;52812;48.960;9.108;2022-10-16T07:36:00;15.30;99.90
3086;DHT22;52812;48.960;9.108;2022-10-16T07:38:26;15.30;99.90
3086;DHT22;52812;48.960;9.108;2022-10-16T07:40:58;15.30;99.90
3086;DHT22;52812;48.960;9.108;2022-10-16T07:43:25;15.20;99.90
3086;DHT22;52812;48.960;9.108;2022-10-16T07:45:51;15.20;99.90
3086;DHT22;52812;48.960;9.108;2022-10-16T07:48:18;15.30;99.90
3086;DHT22;52812;48.960;9.108;2022-10-16T07:50:44;15.30;99.90
3086;DHT22;52812;48.960;9.108;2022-10-16T07:53:11;15.40;99.90
3086;DHT22;52812;48.960;9.108;2022-10-16T07:55:37;15.50;99.90
3086;DHT22;52812;48.960;9.108;2022-10-16T07:58:03;15.60;99.90
3086;DHT22;52812;48.960;9.108;2022-10-16T08:00:31;15.70;99.90
3086;DHT22;52812;48.960;9.108;2022-10-16T08:02:58;15.90;99.90
3086;DHT22;52812;48.960;9.108;2022-10-16T08:05:33;16.10;99.90
3086;DHT22;52812;48.960;9.108;2022-10-16T08:08:06;16.30;99.90
3086;DHT22;52812;48.960;9.108;2022-10-16T08:10:32;16.40;99.90
3086;DHT22;52812;48.960;9.108;2022-10-16T08:13:03;16.60;99.90
3086;DHT22;52812;48.960;9.108;2022-10-16T08:15:28;16.80;99.90
3086;DHT22;52812;48.960;9.108;2022-10-16T08:17:59;16.90;99.90
3086;DHT22;52812;48.960;9.108;2022-10-16T08:20:28;17.00;99.90
3086;DHT22;52812;48.960;9.108;2022-10-16T08:23:03;17.20;99.90
3086;DHT22;52812;48.960;9.108;2022-10-16T08:25:31;17.30;99.90
3086;DHT22;52812;48.960;9.108;2022-10-16T08:27:59;17.20;99.90
3086;DHT22;52812;48.960;9.108;2022-10-16T08:30:27;17.30;99.90
3086;DHT22;52812;48.960;9.108;2022-10-16T08:33:03;17.40;99.90
3086;DHT22;52812;48.960;9.108;2022-10-16T08:39:02;17.80;99.90
3086;DHT22;52812;48.960;9.108;2022-10-16T08:49:31;17.80;99.90
3086;DHT22;52812;48.960;9.108;2022-10-16T08:51:56;17.80;99.90
3086;DHT22;52812;48.960;9.108;2022-10-16T08:54:29;17.80;99.90
3086;DHT22;52812;48.960;9.108;2022-10-16T08:57:00;17.80;99.90
3086;DHT22;52812;48.960;9.108;2022-10-16T08:59:26;17.80;99.90
3086;DHT22;52812;48.960;9.108;2022-10-16T09:01:52;17.80;99.90
3086;DHT22;52812;48.960;9.108;2022-10-16T09:04:42;17.90;99.90
3086;DHT22;52812;48.960;9.108;2022-10-16T09:15:13;18.10;99.90
3086;DHT22;52812;48.960;9.108;2022-10-16T09:17:55;18.10;99.90
3086;DHT22;52812;48.960;9.108;2022-10-16T09:23:15;18.40;99.90
3086;DHT22;52812;48.960;9.108;2022-10-16T09:25:44;18.60;99.90
3086;DHT22;52812;48.960;9.108;2022-10-16T09:28:11;18.60;99.90
3086;DHT22;52812;48.960;9.108;2022-10-16T09:30:37;18.70;99.90
3086;DHT22;52812;48.960;9.108;2022-10-16T09:33:04;18.90;99.90
3086;DHT22;52812;48.960;9.108;2022-10-16T09:35:44;19.10;99.90
3086;DHT22;52812;48.960;9.108;2022-10-16T09:38:25;19.30;99.90
3086;DHT22;52812;48.960;9.108;2022-10-16T09:40:52;19.40;99.90
3086;DHT22;52812;48.960;9.108;2022-10-16T09:43:28;19.40;99.90
3086;DHT22;52812;48.960;9.108;2022-10-16T09:46:29;19.60;99.90
3086;DHT22;52812;48.960;9.108;2022-10-16T09:48:59;19.70;99.90
3086;DHT22;52812;48.960;9.108;2022-10-16T09:51:33;19.60;99.90
3086;DHT22;52812;48.960;9.108;2022-10-16T09:56:37;19.90;99.90
3086;DHT22;52812;48.960;9.108;2022-10-16T09:59:18;20.30;99.90
3086;DHT22;52812;48.960;9.108;2022-10-16T10:01:52;20.50;99.90
3086;DHT22;52812;48.960;9.108;2022-10-16T10:04:23;20.30;99.90
3086;DHT22;52812;48.960;9.108;2022-10-16T10:06:51;20.20;99.90
3086;DHT22;52812;48.960;9.108;2022-10-16T10:09:22;20.40;99.90
3086;DHT22;52812;48.960;9.108;2022-10-16T10:11:57;20.50;99.90
3086;DHT22;52812;48.960;9.108;2022-10-16T10:14:38;20.60;99.90
3086;DHT22;52812;48.960;9.108;2022-10-16T10:19:59;21.00;99.90
3086;DHT22;52812;48.960;9.108;2022-10-16T10:22:41;20.90;99.90
3086;DHT22;52812;48.960;9.108;2022-10-16T10:25:28;20.70;99.90
3086;DHT22;52812;48.960;9.108;2022-10-16T10:30:52;20.50;99.90
3086;DHT22;52812;48.960;9.108;2022-10-16T10:38:44;21.00;99.90
3086;DHT22;52812;48.960;9.108;2022-10-16T10:41:27;21.00;99.90
3086;DHT22;52812;48.960;9.108;2022-10-16T10:44:29;21.00;99.90
3086;DHT22;52812;48.960;9.108;2022-10-16T10:50:18;20.90;99.90
3086;DHT22;52812;48.960;9.108;2022-10-16T11:01:10;21.30;99.90
3086;DHT22;52812;48.960;9.108;2022-10-16T11:04:14;21.40;99.90
3086;DHT22;52812;48.960;9.108;2022-10-16T11:06:52;21.50;99.90
3086;DHT22;52812;48.960;9.108;2022-10-16T11:09:24;21.80;99.90
3086;DHT22;52812;48.960;9.108;2022-10-16T11:12:31;21.90;99.90
3086;DHT22;52812;48.960;9.108;2022-10-16T11:20:23;21.80;99.90
3086;DHT22;52812;48.960;9.108;2022-10-16T11:23:16;21.70;99.90
3086;DHT22;52812;48.960;9.108;2022-10-16T11:25:44;21.40;99.90
3086;DHT22;52812;48.960;9.108;2022-10-16T11:28:20;21.30;99.90
3086;DHT22;52812;48.960;9.108;2022-10-16T11:36:12;20.80;99.90
3086;DHT22;52812;48.960;9.108;2022-10-16T11:41:32;21.10;99.90
3086;DHT22;52812;48.960;9.108;2022-10-16T11:49:25;21.60;99.90
3086;DHT22;52812;48.960;9.108;2022-10-16T11:52:02;21.70;99.90
3086;DHT22;52812;48.960;9.108;2022-10-16T11:59:59;22.00;99.90
3086;DHT22;52812;48.960;9.108;2022-10-16T12:02:55;22.00;99.90
3086;DHT22;52812;48.960;9.108;2022-10-16T12:08:11;22.00;99.90
3086;DHT22;52812;48.960;9.108;2022-10-16T12:10:38;22.00;99.90
3086;DHT22;52812;48.960;9.108;2022-10-16T12:13:26;22.00;99.90
3086;DHT22;52812;48.960;9.108;2022-10-16T12:15:50;22.10;99.90
3086;DHT22;52812;48.960;9.108;2022-10-16T12:18:23;22.10;99.90
3086;DHT22;52812;48.960;9.108;2022-10-16T12:20:57;21.90;99.90
3086;DHT22;52812;48.960;9.108;2022-10-16T12:23:26;21.90;99.90
3086;DHT22;52812;48.960;9.108;2022-10-16T12:25:56;21.70;99.90
3086;DHT22;52812;48.960;9.108;2022-10-16T12:28:26;21.70;99.90
3086;DHT22;52812;48.960;9.108;2022-10-16T12:31:01;21.80;99.90
3086;DHT22;52812;48.960;9.108;2022-10-16T12:33:30;21.70;99.90
3086;DHT22;52812;48.960;9.108;2022-10-16T12:35:58;21.80;99.90
3086;DHT22;52812;48.960;9.108;2022-10-16T12:40:58;21.70;99.90
3086;DHT22;52812;48.960;9.108;2022-10-16T12:43:27;21.70;99.90
3086;DHT22;52812;48.960;9.108;2022-10-16T12:46:21;21.50;99.90
3086;DHT22;52812;48.960;9.108;2022-10-16T12:48:47;21.50;99.90
3086;DHT22;52812;48.960;9.108;2022-10-16T12:51:33;21.70;99.90
3086;DHT22;52812;48.960;9.108;2022-10-16T12:54:04;21.90;99.90
3086;DHT22;52812;48.960;9.108;2022-10-16T12:59:53;22.10;99.90
3086;DHT22;52812;48.960;9.108;2022-10-16T13:27:31;21.70;99.90
3086;DHT22;52812;48.960;9.108;2022-10-16T13:32:46;21.60;99.90
3086;DHT22;52812;48.960;9.108;2022-10-16T13:35:23;21.50;99.90
3086;DHT22;52812;48.960;9.108;2022-10-16T13:37:49;21.50;99.90
3086;DHT22;52812;48.960;9.108;2022-10-16T13:40:22;21.70;99.90
3086;DHT22;52812;48.960;9.108;2022-10-16T13:42:49;21.80;99.90
3086;DHT22;52812;48.960;9.108;2022-10-16T13:45:22;21.90;99.90
3086;DHT22;52812;48.960;9.108;2022-10-16T13:47:48;22.00;99.90
3086;DHT22;52812;48.960;9.108;2022-10-16T13:50:17;22.10;99.90
3086;DHT22;52812;48.960;9.108;2022-10-16T13:52:43;22.10;99.90
3086;DHT22;52812;48.960;9.108;2022-10-16T13:55:13;22.10;99.90
3086;DHT22;52812;48.960;9.108;2022-10-16T13:57:40;22.20;99.90
3086;DHT22;52812;48.960;9.108;2022-10-16T14:00:26;22.30;99.90
3086;DHT22;52812;48.960;9.108;2022-10-16T14:03:13;22.30;99.90
3086;DHT22;52812;48.960;9.108;2022-10-16T14:05:52;22.30;99.90
3086;DHT22;52812;48.960;9.108;2022-10-16T14:08:18;22.20;99.90
3086;DHT22;52812;48.960;9.108;2022-10-16T14:10:49;22.10;99.90
3086;DHT22;52812;48.960;9.108;2022-10-16T14:13:19;22.00;99.90
3086;DHT22;52812;48.960;9.108;2022-10-16T14:15:49;22.00;99.90
3086;DHT22;52812;48.960;9.108;2022-10-16T14:18:24;22.00;99.90
3086;DHT22;52812;48.960;9.108;2022-10-16T14:20:50;21.90;99.90
3086;DHT22;52812;48.960;9.108;2022-10-16T14:23:31;21.90;99.90
3086;DHT22;52812;48.960;9.108;2022-10-16T14:26:27;21.90;99.90
3086;DHT22;52812;48.960;9.108;2022-10-16T14:29:13;21.90;99.90
3086;DHT22;52812;48.960;9.108;2022-10-16T14:31:40;21.80;99.90
3086;DHT22;52812;48.960;9.108;2022-10-16T14:34:26;21.80;99.90
3086;DHT22;52812;48.960;9.108;2022-10-16T14:36:54;21.80;99.90
3086;DHT22;52812;48.960;9.108;2022-10-16T14:39:21;21.80;99.90
3086;DHT22;52812;48.960;9.108;2022-10-16T14:41:49;21.80;99.90
3086;DHT22;52812;48.960;9.108;2022-10-16T14:44:17;21.70;99.90
3086;DHT22;52812;48.960;9.108;2022-10-16T14:46:43;21.60;99.90
3086;DHT22;52812;48.960;9.108;2022-10-16T14:51:36;21.60;99.90
3086;DHT22;52812;48.960;9.108;2022-10-16T14:54:02;21.60;99.90
3086;DHT22;52812;48.960;9.108;2022-10-16T14:56:46;21.60;99.90
3086;DHT22;52812;48.960;9.108;2022-10-16T14:59:24;21.60;99.90
3086;DHT22;52812;48.960;9.108;2022-10-16T15:01:50;21.60;99.90
3086;DHT22;52812;48.960;9.108;2022-10-16T15:04:16;21.50;99.90
3086;DHT22;52812;48.960;9.108;2022-10-16T15:06:43;21.50;99.90
3086;DHT22;52812;48.960;9.108;2022-10-16T15:09:08;21.40;99.90
3086;DHT22;52812;48.960;9.108;2022-10-16T15:11:34;21.50;99.90
3086;DHT22;52812;48.960;9.108;2022-10-16T15:13:59;21.50;99.90
3086;DHT22;52812;48.960;9.108;2022-10-16T15:16:25;21.60;99.90
3086;DHT22;52812;48.960;9.108;2022-10-16T15:18:51;21.50;99.90
3086;DHT22;52812;48.960;9.108;2022-10-16T15:21:24;21.40;99.90
3086;DHT22;52812;48.960;9.108;2022-10-16T15:23:51;21.40;99.90
3086;DHT22;52812;48.960;9.108;2022-10-16T15:26:17;21.40;99.90
3086;DHT22;52812;48.960;9.108;2022-10-16T15:28:42;21.20;99.90
3086;DHT22;52812;48.960;9.108;2022-10-16T15:31:08;21.10;99.90
3086;DHT22;52812;48.960;9.108;2022-10-16T15:33:33;21.00;99.90
3086;DHT22;52812;48.960;9.108;2022-10-16T15:36:01;21.00;99.90
3086;DHT22;52812;48.960;9.108;2022-10-16T15:38:28;20.90;99.90
3086;DHT22;52812;48.960;9.108;2022-10-16T15:40:54;20.90;99.90
3086;DHT22;52812;48.960;9.108;2022-10-16T15:43:19;20.90;99.90
3086;DHT22;52812;48.960;9.108;2022-10-16T15:45:59;20.90;99.90
3086;DHT22;52812;48.960;9.108;2022-10-16T15:48:25;20.90;99.90
3086;DHT22;52812;48.960;9.108;2022-10-16T15:50:51;20.90;99.90
3086;DHT22;52812;48.960;9.108;2022-10-16T15:53:16;20.90;99.90
3086;DHT22;52812;48.960;9.108;2022-10-16T15:55:42;20.90;99.90
3086;DHT22;52812;48.960;9.108;2022-10-16T15:58:07;20.90;99.90
3086;DHT22;52812;48.960;9.108;2022-10-16T16:00:33;20.90;99.90
3086;DHT22;52812;48.960;9.108;2022-10-16T16:02:59;20.80;99.90
3086;DHT22;52812;48.960;9.108;2022-10-16T16:05:24;20.70;99.90
3086;DHT22;52812;48.960;9.108;2022-10-16T16:07:50;20.60;99.90
3086;DHT22;52812;48.960;9.108;2022-10-16T16:10:16;20.50;99.90
3086;DHT22;52812;48.960;9.108;2022-10-16T16:12:42;20.50;99.90
3086;DHT22;52812;48.960;9.108;2022-10-16T16:15:09;20.40;99.90
3086;DHT22;52812;48.960;9.108;2022-10-16T16:17:35;20.30;99.90
3086;DHT22;52812;48.960;9.108;2022-10-16T16:20:01;20.30;99.90
3086;DHT22;52812;48.960;9.108;2022-10-16T16:22:27;20.20;99.90
3086;DHT22;52812;48.960;9.108;2022-10-16T16:24:53;20.10;99.90
3086;DHT22;52812;48.960;9.108;2022-10-16T16:27:19;20.00;99.90
3086;DHT22;52812;48.960;9.108;2022-10-16T16:29:45;19.90;99.90
3086;DHT22;52812;48.960;9.108;2022-10-16T16:32:11;19.80;99.90
3086;DHT22;52812;48.960;9.108;2022-10-16T16:34:36;19.70;99.90
3086;DHT22;52812;48.960;9.108;2022-10-16T16:37:02;19.60;99.90
3086;DHT22;52812;48.960;9.108;2022-10-16T16:39:28;19.50;99.90
3086;DHT22;52812;48.960;9.108;2022-10-16T16:41:56;19.50;99.90
3086;DHT22;52812;48.960;9.108;2022-10-16T16:44:21;19.40;99.90
3086;DHT22;52812;48.960;9.108;2022-10-16T16:46:47;19.20;99.90
3086;DHT22;52812;48.960;9.108;2022-10-16T16:49:13;19.00;99.90
3086;DHT22;52812;48.960;9.108;2022-10-16T16:51:39;18.80;99.90
3086;DHT22;52812;48.960;9.108;2022-10-16T16:54:05;18.70;99.90
3086;DHT22;52812;48.960;9.108;2022-10-16T16:56:32;18.50;99.90
3086;DHT22;52812;48.960;9.108;2022-10-16T16:58:57;18.40;99.90
3086;DHT22;52812;48.960;9.108;2022-10-16T17:01:25;18.40;99.90
3086;DHT22;52812;48.960;9.108;2022-10-16T17:03:52;18.20;99.90
3086;DHT22;52812;48.960;9.108;2022-10-16T17:06:20;17.90;99.90
3086;DHT22;52812;48.960;9.108;2022-10-16T17:08:46;17.70;99.90
3086;DHT22;52812;48.960;9.108;2022-10-16T17:11:14;17.80;99.90
3086;DHT22;52812;48.960;9.108;2022-10-16T17:13:40;17.60;99.90
3086;DHT22;52812;48.960;9.108;2022-10-16T17:16:06;17.50;99.90
3086;DHT22;52812;48.960;9.108;2022-10-16T17:18:32;17.50;99.90
3086;DHT22;52812;48.960;9.108;2022-10-16T17:20:59;17.40;99.90
3086;DHT22;52812;48.960;9.108;2022-10-16T17:23:25;17.30;99.90
3086;DHT22;52812;48.960;9.108;2022-10-16T17:25:51;17.20;99.90
3086;DHT22;52812;48.960;9.108;2022-10-16T17:28:17;17.20;99.90
3086;DHT22;52812;48.960;9.108;2022-10-16T17:30:43;17.20;99.90
3086;DHT22;52812;48.960;9.108;2022-10-16T17:33:10;17.00;99.90
3086;DHT22;52812;48.960;9.108;2022-10-16T17:35:42;16.90;99.90
3086;DHT22;52812;48.960;9.108;2022-10-16T17:38:08;16.70;99.90
3086;DHT22;52812;48.960;9.108;2022-10-16T17:40:34;16.70;99.90
3086;DHT22;52812;48.960;9.108;2022-10-16T17:43:00;16.70;99.90
3086;DHT22;52812;48.960;9.108;2022-10-16T17:45:26;16.70;99.90
3086;DHT22;52812;48.960;9.108;2022-10-16T17:47:52;16.60;99.90
3086;DHT22;52812;48.960;9.108;2022-10-16T17:50:17;16.50;99.90
3086;DHT22;52812;48.960;9.108;2022-10-16T17:52:43;16.40;99.90
3086;DHT22;52812;48.960;9.108;2022-10-16T17:55:08;16.30;99.90
3086;DHT22;52812;48.960;9.108;2022-10-16T17:57:34;16.20;99.90